Terminal Aerodrome Forecast
Issued by NWS Burlington, VT

Home | Current Version | Previous Version | Text Only | Print | Product List | Glossary On
Versions: 1 2 3 4 5 6 7 8 9 10 11 12 13 14
000
FTUS41 KBTV 261730
TAFBTV
TAF
KBTV 261730Z 2618/2718 33006KT P6SM BKN045
     FM270300 VRB03KT P6SM OVC030
     FM270700 VRB04KT P6SM VCSH OVC015
     FM271500 34007KT P6SM -SHRA OVC020=

USA.gov is the U.S. government's official web portal to all federal, state and local government web resources and services.